createdAt,value
2022-12-06T00:02:42.627Z,100078.16
2022-12-06T00:05:46.530Z,100080.28
2022-12-06T00:08:49.326Z,100073.19
2022-12-06T00:11:51.715Z,100068.34
2022-12-06T00:14:53.809Z,100071.31
2022-12-06T00:17:55.942Z,100061.22
2022-12-06T00:21:26.044Z,100068.78
2022-12-06T00:24:28.206Z,100071.44
2022-12-06T00:27:30.725Z,100063.63
2022-12-06T00:30:32.907Z,100062.75
2022-12-06T00:33:36.061Z,100049.47
2022-12-06T00:36:39.497Z,100057.63
2022-12-06T00:39:42.230Z,100065.19
2022-12-06T00:42:44.701Z,100056.22
2022-12-06T00:45:46.845Z,100056.16
2022-12-06T00:48:49.200Z,100056.28
2022-12-06T00:51:51.319Z,100040.72
2022-12-06T00:54:53.469Z,100041.69
2022-12-06T00:57:55.590Z,100035.88
2022-12-06T01:01:17.873Z,100030.88
2022-12-06T01:04:20.064Z,100034.91
2022-12-06T01:07:22.185Z,100038.72
2022-12-06T01:10:24.506Z,100037.31
2022-12-06T01:13:26.596Z,100034.91
2022-12-06T01:16:29.875Z,100027.44
2022-12-06T01:19:32.033Z,100021.13
2022-12-06T01:22:34.380Z,100021.88
2022-12-06T01:25:36.714Z,100018.66
2022-12-06T01:28:38.820Z,100018.03
2022-12-06T01:31:40.877Z,100019.78
2022-12-06T01:34:45.043Z,100012.16
2022-12-06T01:37:47.090Z,100011.97
2022-12-06T01:40:49.477Z,100007.97
2022-12-06T01:43:51.739Z,100003.59
2022-12-06T01:46:53.783Z,99989.63
2022-12-06T01:50:00.411Z,99984.25
2022-12-06T01:53:09.086Z,99982.06
2022-12-06T01:56:11.139Z,99982.53
2022-12-06T01:59:13.316Z,99982.91
2022-12-06T02:02:15.407Z,99983.56
2022-12-06T02:05:17.846Z,99975.28
2022-12-06T02:08:20.408Z,99976.22
2022-12-06T02:11:22.560Z,99974.38
2022-12-06T02:14:29.006Z,99982.34
2022-12-06T02:17:56.040Z,99971.66
2022-12-06T02:21:24.537Z,99966.00
2022-12-06T02:24:49.942Z,99961.84
2022-12-06T02:28:18.810Z,99961.75
2022-12-06T02:32:01.181Z,99955.44
2022-12-06T02:35:17.188Z,99967.16
2022-12-06T02:39:18.471Z,99959.84
2022-12-06T02:42:28.300Z,99952.88
2022-12-06T02:45:33.225Z,99959.06
2022-12-06T02:48:35.283Z,99954.56
2022-12-06T02:51:37.345Z,99947.91
2022-12-06T02:54:39.771Z,99945.69
2022-12-06T02:57:45.298Z,99944.66
2022-12-06T03:00:52.030Z,99933.66
2022-12-06T03:04:31.831Z,99929.75
2022-12-06T03:07:46.400Z,99920.69
2022-12-06T03:10:55.195Z,99926.72
2022-12-06T03:14:06.458Z,99915.84
2022-12-06T03:17:23.114Z,99915.75
2022-12-06T03:20:43.232Z,99908.38
2022-12-06T03:23:47.233Z,99908.09
2022-12-06T03:26:49.890Z,99907.59
2022-12-06T03:29:57.027Z,99906.69
2022-12-06T03:32:59.179Z,99910.94
2022-12-06T03:36:01.328Z,99907.78
2022-12-06T03:39:05.707Z,99892.31
2022-12-06T03:42:07.876Z,99898.09
2022-12-06T03:45:11.360Z,99898.78
2022-12-06T03:48:16.810Z,99896.38
2022-12-06T03:51:23.246Z,99888.78
2022-12-06T03:54:25.277Z,99888.09
2022-12-06T03:57:27.615Z,99883.78
2022-12-06T04:00:30.020Z,99891.78
2022-12-06T04:03:32.149Z,99886.69
2022-12-06T04:06:34.273Z,99892.81
2022-12-06T04:09:55.202Z,99882.84
2022-12-06T04:13:05.782Z,99887.16
2022-12-06T04:16:28.434Z,99892.84
2022-12-06T04:19:30.657Z,99889.63
2022-12-06T04:22:51.507Z,99888.66
2022-12-06T04:25:53.562Z,99879.72
2022-12-06T04:29:14.111Z,99875.69
2022-12-06T04:32:35.168Z,99886.44
2022-12-06T04:35:55.985Z,99886.75
2022-12-06T04:38:58.050Z,99885.41
2022-12-06T04:42:18.714Z,99868.28
2022-12-06T04:45:20.729Z,99882.25
2022-12-06T04:48:22.880Z,99883.66
2022-12-06T04:51:25.064Z,99879.19
2022-12-06T04:54:27.147Z,99866.66
2022-12-06T04:57:29.250Z,99875.88
2022-12-06T05:00:31.383Z,99871.94
2022-12-06T05:03:33.561Z,99868.06
2022-12-06T05:06:35.750Z,99852.69
2022-12-06T05:09:37.859Z,99850.22
2022-12-06T05:12:39.894Z,99850.88
2022-12-06T05:15:53.877Z,99856.28
2022-12-06T05:18:56.009Z,99858.53
2022-12-06T05:21:58.036Z,99857.53
2022-12-06T05:25:00.684Z,99854.97
2022-12-06T05:28:02.914Z,99850.25
2022-12-06T05:31:05.288Z,99852.81
2022-12-06T05:34:07.454Z,99846.78
2022-12-06T05:37:09.502Z,99837.13
2022-12-06T05:40:12.121Z,99843.88
2022-12-06T05:43:14.547Z,99843.66
2022-12-06T05:46:16.867Z,99851.41
2022-12-06T05:49:19.094Z,99851.13
2022-12-06T05:52:21.207Z,99837.81
2022-12-06T05:55:23.393Z,99853.88
2022-12-06T05:58:26.450Z,99841.19
2022-12-06T06:01:28.520Z,99830.56
2022-12-06T06:04:30.655Z,99838.19
2022-12-06T06:07:32.843Z,99837.06
2022-12-06T06:10:34.938Z,99839.84
2022-12-06T06:13:36.989Z,99834.84
2022-12-06T06:16:39.144Z,99837.22
2022-12-06T06:19:41.312Z,99836.91
2022-12-06T06:22:43.479Z,99832.44
2022-12-06T06:25:45.694Z,99837.22
2022-12-06T06:28:47.758Z,99827.78
2022-12-06T06:31:49.835Z,99827.66
2022-12-06T06:34:51.915Z,99827.75
2022-12-06T06:37:53.979Z,99823.63
2022-12-06T06:40:56.055Z,99842.16
2022-12-06T06:43:58.161Z,99832.06
2022-12-06T06:47:00.284Z,99821.41
2022-12-06T06:50:02.522Z,99833.19
2022-12-06T06:53:04.833Z,99825.81
2022-12-06T06:56:07.371Z,99819.47
2022-12-06T06:59:09.526Z,99818.56
2022-12-06T07:02:15.559Z,99821.06
2022-12-06T07:05:17.752Z,99820.56
2022-12-06T07:08:19.993Z,99823.41
2022-12-06T07:11:23.644Z,99811.25
2022-12-06T07:14:25.695Z,99807.41
2022-12-06T07:17:27.769Z,99804.53
2022-12-06T07:20:29.900Z,99802.03
2022-12-06T07:23:35.738Z,99804.50
2022-12-06T07:26:37.870Z,99795.09
2022-12-06T07:29:40.003Z,99801.88
2022-12-06T07:32:42.139Z,99804.00
2022-12-06T07:36:11.388Z,99806.59
2022-12-06T07:39:11.512Z,99801.00
2022-12-06T07:42:35.174Z,99803.16
2022-12-06T07:45:37.673Z,99798.16
2022-12-06T07:48:39.903Z,99798.13
2022-12-06T07:51:42.967Z,99802.03
2022-12-06T07:54:45.078Z,99806.59
2022-12-06T07:57:47.162Z,99810.44
2022-12-06T08:00:49.452Z,99813.16
2022-12-06T08:03:51.622Z,99796.16
2022-12-06T08:06:54.328Z,99812.84
2022-12-06T08:09:56.449Z,99811.56
2022-12-06T08:12:58.555Z,99803.50
2022-12-06T08:16:04.027Z,99809.63
2022-12-06T08:19:06.201Z,99807.53
2022-12-06T08:28:18.137Z,99794.19
2022-12-06T08:31:23.027Z,99817.88
2022-12-06T08:37:40.260Z,99799.56
2022-12-06T08:40:42.535Z,99808.75
2022-12-06T08:43:44.585Z,99810.34
2022-12-06T08:46:46.784Z,99815.22
2022-12-06T08:49:50.622Z,99819.28
2022-12-06T08:52:52.748Z,99818.28
2022-12-06T08:56:02.062Z,99814.63
2022-12-06T08:59:05.642Z,99816.06
2022-12-06T09:02:09.704Z,99825.13
2022-12-06T09:05:11.775Z,99817.25
2022-12-06T09:08:13.941Z,99811.13
2022-12-06T09:11:17.219Z,99818.91
2022-12-06T09:14:21.840Z,99818.28
2022-12-06T09:17:24.417Z,99818.47
2022-12-06T09:20:26.533Z,99811.84
2022-12-06T09:23:28.543Z,99820.59
2022-12-06T09:26:30.658Z,99821.09
2022-12-06T09:29:40.212Z,99814.66
2022-12-06T09:32:42.722Z,99832.50
2022-12-06T09:35:44.762Z,99827.66
2022-12-06T09:38:47.916Z,99825.22
2022-12-06T09:42:11.582Z,99826.44
2022-12-06T09:45:32.369Z,99826.41
2022-12-06T09:49:31.557Z,99825.66
2022-12-06T09:52:51.591Z,99823.69
2022-12-06T09:56:39.519Z,99837.91
2022-12-06T09:59:44.332Z,99843.06
2022-12-06T10:03:06.438Z,99841.31
2022-12-06T10:06:15.080Z,99833.16
2022-12-06T10:09:55.534Z,99834.97
2022-12-06T10:13:31.460Z,99832.13
2022-12-06T10:16:52.264Z,99842.88
2022-12-06T10:20:44.020Z,99848.94
2022-12-06T10:24:20.951Z,99843.41
2022-12-06T10:27:51.393Z,99853.09
2022-12-06T10:30:56.736Z,99840.81
2022-12-06T10:34:06.300Z,99839.63
2022-12-06T10:37:23.424Z,99830.81
2022-12-06T10:41:03.623Z,99831.41
2022-12-06T10:44:37.582Z,99830.91
2022-12-06T10:47:42.268Z,99822.09
2022-12-06T10:50:44.378Z,99824.69
2022-12-06T10:53:55.386Z,99813.84
2022-12-06T10:56:57.979Z,99817.22
2022-12-06T11:00:29.855Z,99802.31
2022-12-06T11:03:54.291Z,99814.78
2022-12-06T11:07:16.356Z,99802.41
2022-12-06T11:10:27.713Z,99803.78
2022-12-06T11:13:37.717Z,99795.00
2022-12-06T11:17:18.942Z,99796.41
2022-12-06T11:20:53.538Z,99803.03
2022-12-06T11:24:32.025Z,99809.34
2022-12-06T11:27:38.276Z,99804.81
2022-12-06T11:30:40.371Z,99795.88
2022-12-06T11:33:42.543Z,99795.47
2022-12-06T11:36:44.898Z,99793.53
2022-12-06T11:39:48.432Z,99798.16
2022-12-06T11:42:50.500Z,99801.34
2022-12-06T11:45:52.653Z,99792.00
2022-12-06T11:48:56.129Z,99801.91
2022-12-06T11:51:59.779Z,99795.94
2022-12-06T11:55:21.630Z,99782.34
2022-12-06T11:58:27.130Z,99787.94
2022-12-06T12:02:01.024Z,99789.00
2022-12-06T12:05:19.816Z,99792.91
2022-12-06T12:08:21.944Z,99798.66
2022-12-06T12:11:30.443Z,99796.66
2022-12-06T12:14:39.868Z,99782.03
2022-12-06T12:17:43.206Z,99789.81
2022-12-06T12:20:45.785Z,99777.97
2022-12-06T12:23:47.903Z,99776.84
2022-12-06T12:26:49.949Z,99770.88
2022-12-06T12:30:24.583Z,99771.13
2022-12-06T12:33:30.264Z,99759.50
2022-12-06T12:36:32.454Z,99763.13
2022-12-06T12:39:44.990Z,99764.31
2022-12-06T12:42:47.074Z,99758.63
2022-12-06T12:46:10.243Z,99764.22
2022-12-06T12:49:23.441Z,99756.00
2022-12-06T12:52:37.380Z,99767.88
2022-12-06T12:55:41.631Z,99758.13
2022-12-06T12:58:44.288Z,99761.00
2022-12-06T13:02:12.941Z,99771.22
2022-12-06T13:05:35.593Z,99762.94
2022-12-06T13:08:38.916Z,99749.81
2022-12-06T13:11:46.775Z,99764.25
2022-12-06T13:14:54.114Z,99773.59
2022-12-06T13:18:00.805Z,99760.66
2022-12-06T13:21:19.681Z,99757.59
2022-12-06T13:24:27.514Z,99766.25
2022-12-06T13:27:49.736Z,99774.56
2022-12-06T13:30:57.001Z,99780.28
2022-12-06T13:34:28.461Z,99780.84
2022-12-06T13:37:45.552Z,99781.25
2022-12-06T13:40:52.623Z,99784.56
2022-12-06T13:43:54.805Z,99779.38
2022-12-06T13:47:29.360Z,99792.44
2022-12-06T13:50:34.453Z,99783.09
2022-12-06T13:53:56.439Z,99770.34
2022-12-06T13:56:58.877Z,99760.03
2022-12-06T14:00:01.495Z,99762.75
2022-12-06T14:03:21.576Z,99761.81
2022-12-06T14:06:43.419Z,99753.63
2022-12-06T14:09:48.153Z,99747.75
2022-12-06T14:13:01.221Z,99756.13
2022-12-06T14:16:04.781Z,99753.66
2022-12-06T14:19:24.539Z,99754.59
2022-12-06T14:22:29.305Z,99754.75
2022-12-06T14:25:31.576Z,99758.00
2022-12-06T14:28:35.554Z,99762.47
2022-12-06T14:31:42.657Z,99747.59
2022-12-06T14:34:44.938Z,99746.25
2022-12-06T14:37:50.862Z,99761.16
2022-12-06T14:41:11.577Z,99751.34
2022-12-06T14:44:17.730Z,99757.75
2022-12-06T14:47:20.829Z,99756.41
2022-12-06T14:50:41.976Z,99756.25
2022-12-06T14:53:44.030Z,99753.78
2022-12-06T14:56:46.135Z,99752.00
2022-12-06T15:00:15.250Z,99756.28
2022-12-06T15:03:26.041Z,99758.88
2022-12-06T15:06:30.779Z,99750.72
2022-12-06T15:09:44.313Z,99767.25
2022-12-06T15:12:55.575Z,99760.03
2022-12-06T15:16:09.400Z,99765.28
2022-12-06T15:19:15.721Z,99768.72
2022-12-06T15:22:26.577Z,99752.03
2022-12-06T15:25:28.643Z,99755.22
2022-12-06T15:28:30.737Z,99755.41
2022-12-06T15:31:32.814Z,99754.13
2022-12-06T15:34:35.219Z,99745.25
2022-12-06T15:37:39.391Z,99750.22
2022-12-06T15:40:44.963Z,99755.94
2022-12-06T15:43:47.272Z,99748.41
2022-12-06T15:46:50.194Z,99746.75
2022-12-06T15:49:53.966Z,99751.53
2022-12-06T15:52:56.067Z,99752.34
2022-12-06T15:55:58.355Z,99757.44
2022-12-06T15:59:00.445Z,99760.50
2022-12-06T16:02:02.793Z,99760.22
2022-12-06T16:05:05.797Z,99761.19
2022-12-06T16:08:08.258Z,99762.97
2022-12-06T16:11:12.645Z,99756.91
2022-12-06T16:14:15.048Z,99758.56
2022-12-06T16:17:17.075Z,99771.81
2022-12-06T16:20:31.377Z,99767.41
2022-12-06T16:27:14.244Z,99782.63
2022-12-06T16:30:17.135Z,99774.63
2022-12-06T16:33:20.921Z,99767.38
2022-12-06T16:36:23.869Z,99771.81
2022-12-06T16:39:26.335Z,99775.28
2022-12-06T16:42:28.436Z,99782.00
2022-12-06T16:45:30.656Z,99777.28
2022-12-06T16:48:34.626Z,99768.88
2022-12-06T16:51:36.748Z,99780.34
2022-12-06T16:54:42.386Z,99778.69
2022-12-06T16:57:45.016Z,99782.00
2022-12-06T17:00:47.172Z,99781.38
2022-12-06T17:03:58.329Z,99774.97
2022-12-06T17:07:00.439Z,99784.47
2022-12-06T17:10:02.592Z,99794.13
2022-12-06T17:13:04.885Z,99796.41
2022-12-06T17:16:08.015Z,99784.44
2022-12-06T17:19:15.345Z,99792.66
2022-12-06T17:22:18.716Z,99781.69
2022-12-06T17:25:20.870Z,99782.00
2022-12-06T17:28:22.936Z,99786.59
2022-12-06T17:31:25.118Z,99791.00
2022-12-06T17:34:27.160Z,99796.41
2022-12-06T17:37:29.200Z,99801.16
2022-12-06T17:40:33.015Z,99801.47
2022-12-06T17:43:35.096Z,99793.28
2022-12-06T17:46:37.665Z,99796.91
2022-12-06T17:49:39.765Z,99793.78
2022-12-06T17:52:41.836Z,99787.25
2022-12-06T17:55:43.895Z,99780.00
2022-12-06T17:58:45.925Z,99785.41
2022-12-06T18:02:14.143Z,99785.78
2022-12-06T18:05:10.639Z,99785.09
2022-12-06T18:08:12.793Z,99784.75
2022-12-06T18:11:15.938Z,99789.03
2022-12-06T18:14:20.541Z,99788.53
2022-12-06T18:17:22.582Z,99797.41
2022-12-06T18:20:24.652Z,99797.88
2022-12-06T18:23:26.847Z,99811.69
2022-12-06T18:26:28.991Z,99797.03
2022-12-06T18:29:31.093Z,99799.28
2022-12-06T18:32:33.166Z,99797.84
2022-12-06T18:35:36.085Z,99797.53
2022-12-06T18:38:38.268Z,99801.63
2022-12-06T18:41:40.296Z,99793.28
2022-12-06T18:44:42.324Z,99804.72
2022-12-06T18:47:44.373Z,99804.75
2022-12-06T18:50:46.450Z,99804.41
2022-12-06T18:53:49.313Z,99810.16
2022-12-06T18:56:51.558Z,99811.75
2022-12-06T18:59:53.593Z,99801.59
2022-12-06T19:02:55.684Z,99795.88
2022-12-06T19:06:04.937Z,99802.53
2022-12-06T19:09:10.272Z,99807.22
2022-12-06T19:12:12.324Z,99802.72
2022-12-06T19:15:14.565Z,99810.78
2022-12-06T19:18:16.685Z,99811.03
2022-12-06T19:21:24.133Z,99802.25
2022-12-06T19:24:26.747Z,99807.28
2022-12-06T19:27:28.781Z,99805.91
2022-12-06T19:30:30.845Z,99795.34
2022-12-06T19:33:38.712Z,99800.44
2022-12-06T19:36:40.753Z,99803.31
2022-12-06T19:39:43.003Z,99808.63
2022-12-06T19:43:03.843Z,99801.97
2022-12-06T19:46:17.391Z,99805.41
2022-12-06T19:49:20.978Z,99805.59
2022-12-06T19:52:26.564Z,99804.16
2022-12-06T19:55:32.690Z,99799.56
2022-12-06T19:58:34.752Z,99812.97
2022-12-06T20:01:37.188Z,99807.22
2022-12-06T20:04:41.740Z,99797.59
2022-12-06T20:07:44.658Z,99797.13
2022-12-06T20:10:46.759Z,99795.03
2022-12-06T20:13:48.807Z,99802.00
2022-12-06T20:16:51.421Z,99797.47
2022-12-06T20:19:53.599Z,99800.44
2022-12-06T20:22:55.642Z,99795.13
2022-12-06T20:25:57.820Z,99789.03
2022-12-06T20:29:00.143Z,99795.34
2022-12-06T20:32:02.515Z,99789.88
2022-12-06T20:35:04.952Z,99804.97
2022-12-06T20:38:07.017Z,99782.44
2022-12-06T20:41:20.284Z,99794.25
2022-12-06T20:44:22.458Z,99800.84
2022-12-06T20:47:24.507Z,99799.81
2022-12-06T20:50:31.721Z,99798.06
2022-12-06T20:53:34.021Z,99788.63
2022-12-06T20:56:38.167Z,99793.31
2022-12-06T20:59:40.508Z,99799.47
2022-12-06T21:02:42.672Z,99799.56
2022-12-06T21:05:45.371Z,99788.00
2022-12-06T21:08:48.352Z,99788.69
2022-12-06T21:11:50.563Z,99777.75
2022-12-06T21:14:52.858Z,99786.22
2022-12-06T21:17:54.964Z,99780.41
2022-12-06T21:20:57.218Z,99771.63
2022-12-06T21:24:00.521Z,99768.22
2022-12-06T21:27:02.576Z,99768.59
2022-12-06T21:30:05.652Z,99772.84
2022-12-06T21:33:07.688Z,99775.63
2022-12-06T21:36:11.052Z,99765.34
2022-12-06T21:39:13.812Z,99767.34
2022-12-06T21:42:15.875Z,99779.75
2022-12-06T21:45:18.311Z,99776.22
2022-12-06T21:48:20.334Z,99780.94
2022-12-06T21:51:29.674Z,99784.59
2022-12-06T21:54:31.757Z,99796.78
2022-12-06T21:57:35.127Z,99779.78
2022-12-06T22:00:42.248Z,99777.06
2022-12-06T22:03:47.625Z,99778.72
2022-12-06T22:06:49.678Z,99779.69
2022-12-06T22:09:51.717Z,99782.72
2022-12-06T22:12:53.775Z,99790.34
2022-12-06T22:15:55.868Z,99783.03
2022-12-06T22:18:58.353Z,99780.81
2022-12-06T22:22:00.425Z,99785.63
2022-12-06T22:25:02.773Z,99796.78
2022-12-06T22:28:05.129Z,99761.09
2022-12-06T22:31:24.628Z,99780.13
2022-12-06T22:34:26.733Z,99770.50
2022-12-06T22:37:28.815Z,99772.75
2022-12-06T22:40:30.874Z,99779.91
2022-12-06T22:43:33.075Z,99771.72
2022-12-06T22:46:36.614Z,99773.25
2022-12-06T22:49:38.907Z,99774.53
2022-12-06T22:52:41.422Z,99780.72
2022-12-06T22:55:43.450Z,99775.66
2022-12-06T22:58:45.471Z,99789.75
2022-12-06T23:01:47.744Z,99790.00
2022-12-06T23:04:49.844Z,99784.72
2022-12-06T23:07:51.941Z,99782.34
2022-12-06T23:11:02.100Z,99775.63
2022-12-06T23:14:04.545Z,99784.31
2022-12-06T23:17:06.738Z,99780.78
2022-12-06T23:20:09.315Z,99775.31
2022-12-06T23:23:11.341Z,99772.50
2022-12-06T23:26:24.963Z,99772.94
2022-12-06T23:29:27.073Z,99778.28
2022-12-06T23:32:30.063Z,99764.41
2022-12-06T23:35:32.113Z,99763.34
2022-12-06T23:38:34.476Z,99755.53
2022-12-06T23:41:36.850Z,99761.66
2022-12-06T23:44:40.100Z,99777.13
2022-12-06T23:47:42.246Z,99764.75
2022-12-06T23:50:44.292Z,99756.53
2022-12-06T23:53:49.311Z,99759.94
2022-12-06T23:56:51.378Z,99763.84
2022-12-06T23:59:53.420Z,99748.00
